Valley, Washington
Current Conditions -  °F | °C
As of 2:53 AM on Monday 20 Oct 2014 (Local Time) from KDEW Reporting Station
Clear Clear  
Wind Chill:   Ceiling: Unl
Heat Index:   Visibility: 10mi
Dew Point:   Wind: 3mph
Humidity: 90%   Direction: 10°N
Pressure: 29.76"   Gusts: NA
Location:  48.17°N, 117.73°W
Report Text: KDEW 200953Z AUTO 01003KT 10SM CLR 09/08 A2976 RMK AO2 SLP073 T00940078
Loading
Personal Weather Stations






























Interactive Weather Map
Tropical Storm Tracking
New forecast layout! Learn more

10-Day Weather Forecast

Advertisements
Track Severe Weather on mobile